sensor_id;sensor_type;location;lat;lon;timestamp;P1;durP1;ratioP1;P2;durP2;ratioP2
68993;SDS011;56054;50.968;5.816;2023-03-01T00:03:03;15.23;;;6.53;;
68993;SDS011;56054;50.968;5.816;2023-03-01T00:06:10;13.10;;;7.07;;
68993;SDS011;56054;50.968;5.816;2023-03-01T00:09:18;12.83;;;6.10;;
68993;SDS011;56054;50.968;5.816;2023-03-01T00:12:25;9.37;;;6.07;;
68993;SDS011;56054;50.968;5.816;2023-03-01T00:15:37;10.07;;;5.90;;
68993;SDS011;56054;50.968;5.816;2023-03-01T00:18:55;19.73;;;8.80;;
68993;SDS011;56054;50.968;5.816;2023-03-01T00:22:03;19.37;;;10.57;;
68993;SDS011;56054;50.968;5.816;2023-03-01T00:25:40;15.07;;;7.13;;
68993;SDS011;56054;50.968;5.816;2023-03-01T00:28:51;11.50;;;5.70;;
68993;SDS011;56054;50.968;5.816;2023-03-01T00:32:32;11.47;;;6.47;;
68993;SDS011;56054;50.968;5.816;2023-03-01T00:36:15;16.33;;;6.60;;
68993;SDS011;56054;50.968;5.816;2023-03-01T00:39:23;9.90;;;5.90;;
68993;SDS011;56054;50.968;5.816;2023-03-01T00:42:30;15.03;;;6.60;;
68993;SDS011;56054;50.968;5.816;2023-03-01T00:45:38;11.60;;;6.60;;
68993;SDS011;56054;50.968;5.816;2023-03-01T00:48:45;9.90;;;6.13;;
68993;SDS011;56054;50.968;5.816;2023-03-01T00:51:53;12.27;;;6.67;;
68993;SDS011;56054;50.968;5.816;2023-03-01T00:58:30;12.70;;;6.20;;
68993;SDS011;56054;50.968;5.816;2023-03-01T01:01:38;10.23;;;6.20;;
68993;SDS011;56054;50.968;5.816;2023-03-01T01:04:54;17.33;;;5.93;;
68993;SDS011;56054;50.968;5.816;2023-03-01T01:08:01;9.77;;;5.73;;
68993;SDS011;56054;50.968;5.816;2023-03-01T01:11:14;11.10;;;7.00;;
68993;SDS011;56054;50.968;5.816;2023-03-01T01:14:30;8.60;;;6.07;;
68993;SDS011;56054;50.968;5.816;2023-03-01T01:18:08;12.87;;;5.90;;
68993;SDS011;56054;50.968;5.816;2023-03-01T01:21:17;13.10;;;6.67;;
68993;SDS011;56054;50.968;5.816;2023-03-01T01:24:26;12.13;;;6.00;;
68993;SDS011;56054;50.968;5.816;2023-03-01T01:27:33;16.97;;;6.40;;
68993;SDS011;56054;50.968;5.816;2023-03-01T01:30:42;10.60;;;6.40;;
68993;SDS011;56054;50.968;5.816;2023-03-01T01:33:54;10.00;;;6.33;;
68993;SDS011;56054;50.968;5.816;2023-03-01T01:37:03;13.20;;;6.97;;
68993;SDS011;56054;50.968;5.816;2023-03-01T01:40:18;8.33;;;5.67;;
68993;SDS011;56054;50.968;5.816;2023-03-01T01:43:31;9.73;;;6.17;;
68993;SDS011;56054;50.968;5.816;2023-03-01T01:46:47;10.90;;;6.60;;
68993;SDS011;56054;50.968;5.816;2023-03-01T01:50:04;9.47;;;6.07;;
68993;SDS011;56054;50.968;5.816;2023-03-01T01:53:15;11.87;;;6.50;;
68993;SDS011;56054;50.968;5.816;2023-03-01T01:56:25;11.27;;;6.93;;
68993;SDS011;56054;50.968;5.816;2023-03-01T01:59:39;10.03;;;6.50;;
68993;SDS011;56054;50.968;5.816;2023-03-01T02:03:07;8.67;;;6.20;;
68993;SDS011;56054;50.968;5.816;2023-03-01T02:06:39;11.63;;;7.00;;
68993;SDS011;56054;50.968;5.816;2023-03-01T02:09:53;11.73;;;6.97;;
68993;SDS011;56054;50.968;5.816;2023-03-01T02:13:00;12.83;;;7.03;;
68993;SDS011;56054;50.968;5.816;2023-03-01T02:16:11;13.03;;;6.93;;
68993;SDS011;56054;50.968;5.816;2023-03-01T02:23:07;11.43;;;7.00;;
68993;SDS011;56054;50.968;5.816;2023-03-01T02:29:24;11.43;;;6.20;;
68993;SDS011;56054;50.968;5.816;2023-03-01T02:32:34;12.07;;;7.10;;
68993;SDS011;56054;50.968;5.816;2023-03-01T02:35:41;14.17;;;7.20;;
68993;SDS011;56054;50.968;5.816;2023-03-01T02:38:54;11.13;;;7.53;;
68993;SDS011;56054;50.968;5.816;2023-03-01T02:42:04;11.17;;;7.10;;
68993;SDS011;56054;50.968;5.816;2023-03-01T02:45:13;11.47;;;6.70;;
68993;SDS011;56054;50.968;5.816;2023-03-01T02:48:20;10.30;;;6.63;;
68993;SDS011;56054;50.968;5.816;2023-03-01T02:51:38;13.90;;;6.60;;
68993;SDS011;56054;50.968;5.816;2023-03-01T02:55:06;11.10;;;6.23;;
68993;SDS011;56054;50.968;5.816;2023-03-01T02:58:15;12.33;;;6.23;;
68993;SDS011;56054;50.968;5.816;2023-03-01T03:01:22;11.07;;;6.90;;
68993;SDS011;56054;50.968;5.816;2023-03-01T03:04:55;17.37;;;7.07;;
68993;SDS011;56054;50.968;5.816;2023-03-01T03:08:03;13.13;;;7.43;;
68993;SDS011;56054;50.968;5.816;2023-03-01T03:11:20;11.87;;;7.50;;
68993;SDS011;56054;50.968;5.816;2023-03-01T03:14:28;15.73;;;7.57;;
68993;SDS011;56054;50.968;5.816;2023-03-01T03:17:40;12.90;;;7.53;;
68993;SDS011;56054;50.968;5.816;2023-03-01T03:21:14;13.10;;;7.43;;
68993;SDS011;56054;50.968;5.816;2023-03-01T03:24:24;15.00;;;6.90;;
68993;SDS011;56054;50.968;5.816;2023-03-01T03:27:34;16.73;;;7.63;;
68993;SDS011;56054;50.968;5.816;2023-03-01T03:30:55;13.93;;;8.20;;
68993;SDS011;56054;50.968;5.816;2023-03-01T03:34:02;14.43;;;7.60;;
68993;SDS011;56054;50.968;5.816;2023-03-01T03:37:09;12.33;;;7.20;;
68993;SDS011;56054;50.968;5.816;2023-03-01T03:40:18;10.77;;;7.17;;
68993;SDS011;56054;50.968;5.816;2023-03-01T03:43:25;14.30;;;7.90;;
68993;SDS011;56054;50.968;5.816;2023-03-01T03:46:44;13.27;;;7.07;;
68993;SDS011;56054;50.968;5.816;2023-03-01T03:49:53;17.20;;;8.03;;
68993;SDS011;56054;50.968;5.816;2023-03-01T03:56:59;16.00;;;8.27;;
68993;SDS011;56054;50.968;5.816;2023-03-01T04:00:09;12.07;;;7.40;;
68993;SDS011;56054;50.968;5.816;2023-03-01T04:03:35;15.03;;;7.27;;
68993;SDS011;56054;50.968;5.816;2023-03-01T04:06:42;14.87;;;7.17;;
68993;SDS011;56054;50.968;5.816;2023-03-01T04:09:54;11.57;;;8.00;;
68993;SDS011;56054;50.968;5.816;2023-03-01T04:13:03;13.60;;;8.13;;
68993;SDS011;56054;50.968;5.816;2023-03-01T04:16:18;15.43;;;7.57;;
68993;SDS011;56054;50.968;5.816;2023-03-01T04:19:27;11.80;;;7.40;;
68993;SDS011;56054;50.968;5.816;2023-03-01T04:23:01;14.33;;;7.73;;
68993;SDS011;56054;50.968;5.816;2023-03-01T04:26:47;13.57;;;7.20;;
68993;SDS011;56054;50.968;5.816;2023-03-01T04:29:55;12.97;;;7.03;;
68993;SDS011;56054;50.968;5.816;2023-03-01T04:33:03;11.57;;;8.13;;
68993;SDS011;56054;50.968;5.816;2023-03-01T04:36:15;11.80;;;7.37;;
68993;SDS011;56054;50.968;5.816;2023-03-01T04:39:23;16.47;;;8.03;;
68993;SDS011;56054;50.968;5.816;2023-03-01T04:42:30;14.43;;;8.03;;
68993;SDS011;56054;50.968;5.816;2023-03-01T04:45:38;17.77;;;8.33;;
68993;SDS011;56054;50.968;5.816;2023-03-01T04:48:48;12.03;;;7.57;;
68993;SDS011;56054;50.968;5.816;2023-03-01T04:59:59;11.57;;;7.43;;
68993;SDS011;56054;50.968;5.816;2023-03-01T05:03:09;15.43;;;8.57;;
68993;SDS011;56054;50.968;5.816;2023-03-01T05:06:25;13.03;;;8.70;;
68993;SDS011;56054;50.968;5.816;2023-03-01T05:09:34;16.70;;;8.73;;
68993;SDS011;56054;50.968;5.816;2023-03-01T05:12:42;9.77;;;7.77;;
68993;SDS011;56054;50.968;5.816;2023-03-01T05:15:56;16.90;;;8.53;;
68993;SDS011;56054;50.968;5.816;2023-03-01T05:19:04;15.27;;;7.60;;
68993;SDS011;56054;50.968;5.816;2023-03-01T05:22:11;19.13;;;8.43;;
68993;SDS011;56054;50.968;5.816;2023-03-01T05:25:31;12.67;;;8.07;;
68993;SDS011;56054;50.968;5.816;2023-03-01T05:28:39;15.30;;;8.67;;
68993;SDS011;56054;50.968;5.816;2023-03-01T05:32:12;14.43;;;7.20;;
68993;SDS011;56054;50.968;5.816;2023-03-01T05:39:00;11.60;;;7.70;;
68993;SDS011;56054;50.968;5.816;2023-03-01T05:42:10;16.90;;;7.80;;
68993;SDS011;56054;50.968;5.816;2023-03-01T05:45:18;13.03;;;8.83;;
68993;SDS011;56054;50.968;5.816;2023-03-01T05:51:59;11.00;;;7.87;;
68993;SDS011;56054;50.968;5.816;2023-03-01T05:55:16;14.93;;;8.93;;
68993;SDS011;56054;50.968;5.816;2023-03-01T05:58:28;15.20;;;9.70;;
68993;SDS011;56054;50.968;5.816;2023-03-01T06:01:38;15.37;;;8.53;;
68993;SDS011;56054;50.968;5.816;2023-03-01T06:04:45;14.60;;;8.37;;
68993;SDS011;56054;50.968;5.816;2023-03-01T06:07:53;14.80;;;8.73;;
68993;SDS011;56054;50.968;5.816;2023-03-01T06:11:03;16.53;;;9.10;;
68993;SDS011;56054;50.968;5.816;2023-03-01T06:14:10;19.53;;;9.43;;
68993;SDS011;56054;50.968;5.816;2023-03-01T06:17:17;15.53;;;9.43;;
68993;SDS011;56054;50.968;5.816;2023-03-01T06:20:29;18.87;;;9.23;;
68993;SDS011;56054;50.968;5.816;2023-03-01T06:23:36;15.70;;;9.23;;
68993;SDS011;56054;50.968;5.816;2023-03-01T06:27:00;16.07;;;8.97;;
68993;SDS011;56054;50.968;5.816;2023-03-01T06:30:09;14.90;;;9.10;;
68993;SDS011;56054;50.968;5.816;2023-03-01T06:33:18;14.03;;;8.83;;
68993;SDS011;56054;50.968;5.816;2023-03-01T06:36:44;21.53;;;9.27;;
68993;SDS011;56054;50.968;5.816;2023-03-01T06:39:58;14.40;;;8.60;;
68993;SDS011;56054;50.968;5.816;2023-03-01T06:43:05;21.33;;;9.00;;
68993;SDS011;56054;50.968;5.816;2023-03-01T06:46:12;15.50;;;9.00;;
68993;SDS011;56054;50.968;5.816;2023-03-01T06:49:28;18.47;;;9.43;;
68993;SDS011;56054;50.968;5.816;2023-03-01T06:52:41;16.93;;;9.17;;
68993;SDS011;56054;50.968;5.816;2023-03-01T06:55:53;16.80;;;9.10;;
68993;SDS011;56054;50.968;5.816;2023-03-01T06:59:08;17.10;;;10.17;;
68993;SDS011;56054;50.968;5.816;2023-03-01T07:02:18;16.90;;;10.43;;
68993;SDS011;56054;50.968;5.816;2023-03-01T07:05:25;16.03;;;9.50;;
68993;SDS011;56054;50.968;5.816;2023-03-01T07:08:32;19.37;;;8.93;;
68993;SDS011;56054;50.968;5.816;2023-03-01T07:11:39;15.10;;;9.33;;
68993;SDS011;56054;50.968;5.816;2023-03-01T07:14:47;21.30;;;9.07;;
68993;SDS011;56054;50.968;5.816;2023-03-01T07:17:55;16.67;;;9.27;;
68993;SDS011;56054;50.968;5.816;2023-03-01T07:21:09;14.60;;;8.73;;
68993;SDS011;56054;50.968;5.816;2023-03-01T07:24:18;16.03;;;9.37;;
68993;SDS011;56054;50.968;5.816;2023-03-01T07:27:29;22.07;;;9.80;;
68993;SDS011;56054;50.968;5.816;2023-03-01T07:30:36;18.27;;;9.93;;
68993;SDS011;56054;50.968;5.816;2023-03-01T07:33:55;19.30;;;9.37;;
68993;SDS011;56054;50.968;5.816;2023-03-01T07:37:03;14.90;;;9.40;;
68993;SDS011;56054;50.968;5.816;2023-03-01T07:40:10;18.00;;;9.57;;
68993;SDS011;56054;50.968;5.816;2023-03-01T07:43:20;17.10;;;9.67;;
68993;SDS011;56054;50.968;5.816;2023-03-01T07:46:39;13.20;;;8.93;;
68993;SDS011;56054;50.968;5.816;2023-03-01T07:49:48;13.50;;;8.33;;
68993;SDS011;56054;50.968;5.816;2023-03-01T07:52:58;19.93;;;9.20;;
68993;SDS011;56054;50.968;5.816;2023-03-01T07:56:10;20.93;;;10.30;;
68993;SDS011;56054;50.968;5.816;2023-03-01T07:59:18;13.90;;;8.20;;
68993;SDS011;56054;50.968;5.816;2023-03-01T08:06:40;15.50;;;8.50;;
68993;SDS011;56054;50.968;5.816;2023-03-01T08:10:05;17.67;;;9.53;;
68993;SDS011;56054;50.968;5.816;2023-03-01T08:17:24;21.87;;;11.13;;
68993;SDS011;56054;50.968;5.816;2023-03-01T08:25:07;15.13;;;9.57;;
68993;SDS011;56054;50.968;5.816;2023-03-01T08:41:59;17.03;;;9.83;;
68993;SDS011;56054;50.968;5.816;2023-03-01T08:45:08;17.23;;;9.90;;
68993;SDS011;56054;50.968;5.816;2023-03-01T08:48:16;14.23;;;8.60;;
68993;SDS011;56054;50.968;5.816;2023-03-01T08:51:49;18.57;;;10.33;;
68993;SDS011;56054;50.968;5.816;2023-03-01T08:54:56;14.27;;;9.00;;
68993;SDS011;56054;50.968;5.816;2023-03-01T08:58:03;19.03;;;10.00;;
68993;SDS011;56054;50.968;5.816;2023-03-01T09:01:36;17.83;;;9.90;;
68993;SDS011;56054;50.968;5.816;2023-03-01T09:05:09;16.43;;;9.17;;
68993;SDS011;56054;50.968;5.816;2023-03-01T09:11:32;20.43;;;9.17;;
68993;SDS011;56054;50.968;5.816;2023-03-01T09:14:39;16.27;;;9.67;;
68993;SDS011;56054;50.968;5.816;2023-03-01T09:17:46;18.33;;;9.77;;
68993;SDS011;56054;50.968;5.816;2023-03-01T09:20:53;16.50;;;8.57;;
68993;SDS011;56054;50.968;5.816;2023-03-01T09:24:14;18.27;;;9.33;;
68993;SDS011;56054;50.968;5.816;2023-03-01T09:27:39;13.97;;;9.20;;
68993;SDS011;56054;50.968;5.816;2023-03-01T09:30:46;17.13;;;9.00;;
68993;SDS011;56054;50.968;5.816;2023-03-01T09:33:58;14.07;;;8.70;;
68993;SDS011;56054;50.968;5.816;2023-03-01T09:37:05;15.23;;;8.53;;
68993;SDS011;56054;50.968;5.816;2023-03-01T09:40:14;14.80;;;8.83;;
68993;SDS011;56054;50.968;5.816;2023-03-01T09:43:26;16.03;;;10.10;;
68993;SDS011;56054;50.968;5.816;2023-03-01T09:46:48;20.57;;;9.63;;
68993;SDS011;56054;50.968;5.816;2023-03-01T09:53:13;21.37;;;10.20;;
68993;SDS011;56054;50.968;5.816;2023-03-01T09:56:44;18.40;;;9.93;;
68993;SDS011;56054;50.968;5.816;2023-03-01T10:04:27;16.70;;;9.67;;
68993;SDS011;56054;50.968;5.816;2023-03-01T10:07:40;19.03;;;9.60;;
68993;SDS011;56054;50.968;5.816;2023-03-01T10:11:03;18.30;;;10.03;;
68993;SDS011;56054;50.968;5.816;2023-03-01T10:17:57;14.63;;;9.17;;
68993;SDS011;56054;50.968;5.816;2023-03-01T10:21:28;21.70;;;10.23;;
68993;SDS011;56054;50.968;5.816;2023-03-01T10:24:39;21.37;;;10.17;;
68993;SDS011;56054;50.968;5.816;2023-03-01T10:27:58;17.70;;;10.10;;
68993;SDS011;56054;50.968;5.816;2023-03-01T10:31:24;16.10;;;9.10;;
68993;SDS011;56054;50.968;5.816;2023-03-01T10:34:43;16.03;;;9.63;;
68993;SDS011;56054;50.968;5.816;2023-03-01T10:38:23;18.37;;;9.97;;
68993;SDS011;56054;50.968;5.816;2023-03-01T10:41:28;19.60;;;10.00;;
68993;SDS011;56054;50.968;5.816;2023-03-01T10:48:03;16.83;;;10.20;;
68993;SDS011;56054;50.968;5.816;2023-03-01T10:51:50;18.07;;;9.73;;
68993;SDS011;56054;50.968;5.816;2023-03-01T10:58:58;17.83;;;10.23;;
68993;SDS011;56054;50.968;5.816;2023-03-01T11:02:21;20.73;;;10.10;;
68993;SDS011;56054;50.968;5.816;2023-03-01T11:05:56;20.00;;;10.50;;
68993;SDS011;56054;50.968;5.816;2023-03-01T11:12:41;23.53;;;10.53;;
68993;SDS011;56054;50.968;5.816;2023-03-01T11:19:37;17.57;;;9.83;;
68993;SDS011;56054;50.968;5.816;2023-03-01T11:26:30;19.83;;;10.80;;
68993;SDS011;56054;50.968;5.816;2023-03-01T11:29:42;20.30;;;10.30;;
68993;SDS011;56054;50.968;5.816;2023-03-01T11:40:05;17.23;;;9.23;;
68993;SDS011;56054;50.968;5.816;2023-03-01T11:47:15;17.77;;;9.60;;
68993;SDS011;56054;50.968;5.816;2023-03-01T12:00:59;15.83;;;9.40;;
68993;SDS011;56054;50.968;5.816;2023-03-01T12:04:32;14.83;;;8.43;;
68993;SDS011;56054;50.968;5.816;2023-03-01T12:08:02;19.73;;;9.67;;
68993;SDS011;56054;50.968;5.816;2023-03-01T12:40:15;21.30;;;9.40;;
68993;SDS011;56054;50.968;5.816;2023-03-01T12:44:32;25.23;;;10.27;;
68993;SDS011;56054;50.968;5.816;2023-03-01T12:51:31;17.00;;;8.67;;
68993;SDS011;56054;50.968;5.816;2023-03-01T12:54:55;19.53;;;8.50;;
68993;SDS011;56054;50.968;5.816;2023-03-01T12:58:28;16.10;;;8.63;;
68993;SDS011;56054;50.968;5.816;2023-03-01T13:16:22;15.43;;;8.93;;
68993;SDS011;56054;50.968;5.816;2023-03-01T13:19:55;12.63;;;8.07;;
68993;SDS011;56054;50.968;5.816;2023-03-01T13:23:30;19.57;;;8.00;;
68993;SDS011;56054;50.968;5.816;2023-03-01T13:33:47;14.10;;;8.37;;
68993;SDS011;56054;50.968;5.816;2023-03-01T13:36:54;17.97;;;8.50;;
68993;SDS011;56054;50.968;5.816;2023-03-01T13:43:57;15.13;;;8.87;;
68993;SDS011;56054;50.968;5.816;2023-03-01T13:47:15;14.70;;;7.43;;
68993;SDS011;56054;50.968;5.816;2023-03-01T13:50:29;13.23;;;7.83;;
68993;SDS011;56054;50.968;5.816;2023-03-01T13:53:43;15.53;;;7.97;;
68993;SDS011;56054;50.968;5.816;2023-03-01T13:56:53;12.77;;;7.57;;
68993;SDS011;56054;50.968;5.816;2023-03-01T14:00:23;13.10;;;7.80;;
68993;SDS011;56054;50.968;5.816;2023-03-01T14:03:49;20.00;;;7.37;;
68993;SDS011;56054;50.968;5.816;2023-03-01T14:07:19;11.97;;;6.67;;
68993;SDS011;56054;50.968;5.816;2023-03-01T14:10:32;11.50;;;6.60;;
68993;SDS011;56054;50.968;5.816;2023-03-01T14:21:40;18.60;;;7.00;;
68993;SDS011;56054;50.968;5.816;2023-03-01T14:24:48;11.80;;;7.17;;
68993;SDS011;56054;50.968;5.816;2023-03-01T14:28:21;21.47;;;11.50;;
68993;SDS011;56054;50.968;5.816;2023-03-01T14:31:45;11.57;;;7.00;;
68993;SDS011;56054;50.968;5.816;2023-03-01T14:35:27;20.27;;;11.53;;
68993;SDS011;56054;50.968;5.816;2023-03-01T14:38:42;17.70;;;7.63;;
68993;SDS011;56054;50.968;5.816;2023-03-01T14:41:50;12.87;;;7.27;;
68993;SDS011;56054;50.968;5.816;2023-03-01T14:44:57;13.73;;;6.87;;
68993;SDS011;56054;50.968;5.816;2023-03-01T14:48:24;10.47;;;6.80;;
68993;SDS011;56054;50.968;5.816;2023-03-01T14:51:41;10.77;;;5.70;;
68993;SDS011;56054;50.968;5.816;2023-03-01T14:58:57;13.40;;;6.33;;
68993;SDS011;56054;50.968;5.816;2023-03-01T15:02:33;13.63;;;5.80;;
68993;SDS011;56054;50.968;5.816;2023-03-01T15:05:48;19.63;;;11.43;;
68993;SDS011;56054;50.968;5.816;2023-03-01T15:09:39;12.80;;;5.10;;
68993;SDS011;56054;50.968;5.816;2023-03-01T15:13:19;9.03;;;4.70;;
68993;SDS011;56054;50.968;5.816;2023-03-01T15:20:54;9.53;;;5.20;;
68993;SDS011;56054;50.968;5.816;2023-03-01T15:27:47;12.83;;;5.27;;
68993;SDS011;56054;50.968;5.816;2023-03-01T15:31:34;8.90;;;5.20;;
68993;SDS011;56054;50.968;5.816;2023-03-01T15:38:51;10.63;;;4.90;;
68993;SDS011;56054;50.968;5.816;2023-03-01T15:42:00;9.07;;;5.23;;
68993;SDS011;56054;50.968;5.816;2023-03-01T15:48:20;11.40;;;5.47;;
68993;SDS011;56054;50.968;5.816;2023-03-01T15:51:29;15.13;;;6.07;;
68993;SDS011;56054;50.968;5.816;2023-03-01T15:55:03;8.10;;;5.07;;
68993;SDS011;56054;50.968;5.816;2023-03-01T15:59:12;10.43;;;6.40;;
68993;SDS011;56054;50.968;5.816;2023-03-01T16:02:20;14.67;;;5.97;;
68993;SDS011;56054;50.968;5.816;2023-03-01T16:06:03;11.07;;;5.33;;
68993;SDS011;56054;50.968;5.816;2023-03-01T16:09:10;11.20;;;5.87;;
68993;SDS011;56054;50.968;5.816;2023-03-01T16:12:17;10.93;;;5.27;;
68993;SDS011;56054;50.968;5.816;2023-03-01T16:15:28;10.80;;;5.53;;
68993;SDS011;56054;50.968;5.816;2023-03-01T16:18:38;11.17;;;5.50;;
68993;SDS011;56054;50.968;5.816;2023-03-01T16:21:55;12.23;;;5.87;;
68993;SDS011;56054;50.968;5.816;2023-03-01T16:25:04;12.37;;;5.73;;
68993;SDS011;56054;50.968;5.816;2023-03-01T16:28:21;9.80;;;5.77;;
68993;SDS011;56054;50.968;5.816;2023-03-01T16:31:54;24.17;;;12.53;;
68993;SDS011;56054;50.968;5.816;2023-03-01T16:35:11;9.83;;;4.93;;
68993;SDS011;56054;50.968;5.816;2023-03-01T16:38:23;17.37;;;5.43;;
68993;SDS011;56054;50.968;5.816;2023-03-01T16:41:33;15.00;;;7.40;;
68993;SDS011;56054;50.968;5.816;2023-03-01T16:44:43;12.73;;;7.47;;
68993;SDS011;56054;50.968;5.816;2023-03-01T16:47:53;12.73;;;6.33;;
68993;SDS011;56054;50.968;5.816;2023-03-01T16:51:00;16.90;;;6.33;;
68993;SDS011;56054;50.968;5.816;2023-03-01T16:54:08;11.23;;;5.13;;
68993;SDS011;56054;50.968;5.816;2023-03-01T16:57:15;8.50;;;5.13;;
68993;SDS011;56054;50.968;5.816;2023-03-01T17:00:22;11.27;;;5.57;;
68993;SDS011;56054;50.968;5.816;2023-03-01T17:03:39;13.60;;;6.17;;
68993;SDS011;56054;50.968;5.816;2023-03-01T17:06:46;11.60;;;6.00;;
68993;SDS011;56054;50.968;5.816;2023-03-01T17:09:54;11.20;;;6.03;;
68993;SDS011;56054;50.968;5.816;2023-03-01T17:13:01;14.87;;;6.80;;
68993;SDS011;56054;50.968;5.816;2023-03-01T17:16:21;14.83;;;10.60;;
68993;SDS011;56054;50.968;5.816;2023-03-01T17:19:28;11.30;;;6.03;;
68993;SDS011;56054;50.968;5.816;2023-03-01T17:22:35;11.87;;;6.40;;
68993;SDS011;56054;50.968;5.816;2023-03-01T17:25:42;11.93;;;6.57;;
68993;SDS011;56054;50.968;5.816;2023-03-01T17:29:19;20.23;;;8.63;;
68993;SDS011;56054;50.968;5.816;2023-03-01T17:32:45;23.43;;;11.17;;
68993;SDS011;56054;50.968;5.816;2023-03-01T17:35:59;16.37;;;8.93;;
68993;SDS011;56054;50.968;5.816;2023-03-01T17:39:06;13.83;;;6.83;;
68993;SDS011;56054;50.968;5.816;2023-03-01T17:42:13;16.77;;;7.33;;
68993;SDS011;56054;50.968;5.816;2023-03-01T17:45:24;13.20;;;6.53;;
68993;SDS011;56054;50.968;5.816;2023-03-01T17:48:31;16.63;;;7.50;;
68993;SDS011;56054;50.968;5.816;2023-03-01T17:51:38;17.30;;;8.37;;
68993;SDS011;56054;50.968;5.816;2023-03-01T17:54:45;16.27;;;7.47;;
68993;SDS011;56054;50.968;5.816;2023-03-01T17:57:52;13.07;;;6.73;;
68993;SDS011;56054;50.968;5.816;2023-03-01T18:01:12;12.60;;;6.17;;
68993;SDS011;56054;50.968;5.816;2023-03-01T18:04:23;11.23;;;6.23;;
68993;SDS011;56054;50.968;5.816;2023-03-01T18:07:30;11.87;;;5.60;;
68993;SDS011;56054;50.968;5.816;2023-03-01T18:10:37;10.67;;;5.77;;
68993;SDS011;56054;50.968;5.816;2023-03-01T18:14:12;14.60;;;7.20;;
68993;SDS011;56054;50.968;5.816;2023-03-01T18:17:46;15.90;;;7.03;;
68993;SDS011;56054;50.968;5.816;2023-03-01T18:20:56;10.83;;;6.20;;
68993;SDS011;56054;50.968;5.816;2023-03-01T18:24:09;12.13;;;7.03;;
68993;SDS011;56054;50.968;5.816;2023-03-01T18:27:18;12.87;;;6.63;;
68993;SDS011;56054;50.968;5.816;2023-03-01T18:30:25;14.57;;;6.70;;
68993;SDS011;56054;50.968;5.816;2023-03-01T18:33:39;16.23;;;6.60;;
68993;SDS011;56054;50.968;5.816;2023-03-01T18:37:30;16.43;;;7.50;;
68993;SDS011;56054;50.968;5.816;2023-03-01T18:41:15;35.70;;;15.13;;
68993;SDS011;56054;50.968;5.816;2023-03-01T18:44:23;26.03;;;10.57;;
68993;SDS011;56054;50.968;5.816;2023-03-01T18:47:59;18.57;;;8.07;;
68993;SDS011;56054;50.968;5.816;2023-03-01T18:51:16;16.63;;;8.57;;
68993;SDS011;56054;50.968;5.816;2023-03-01T18:54:41;18.33;;;8.33;;
68993;SDS011;56054;50.968;5.816;2023-03-01T18:57:48;10.67;;;6.53;;
68993;SDS011;56054;50.968;5.816;2023-03-01T19:01:22;13.17;;;7.40;;
68993;SDS011;56054;50.968;5.816;2023-03-01T19:04:39;20.13;;;8.03;;
68993;SDS011;56054;50.968;5.816;2023-03-01T19:08:15;25.73;;;9.03;;
68993;SDS011;56054;50.968;5.816;2023-03-01T19:11:28;13.37;;;7.17;;
68993;SDS011;56054;50.968;5.816;2023-03-01T19:14:35;17.67;;;8.43;;
68993;SDS011;56054;50.968;5.816;2023-03-01T19:18:00;10.53;;;5.80;;
68993;SDS011;56054;50.968;5.816;2023-03-01T19:21:33;12.00;;;5.60;;
68993;SDS011;56054;50.968;5.816;2023-03-01T19:24:48;14.23;;;6.93;;
68993;SDS011;56054;50.968;5.816;2023-03-01T19:27:55;19.23;;;7.70;;
68993;SDS011;56054;50.968;5.816;2023-03-01T19:31:10;13.50;;;6.77;;
68993;SDS011;56054;50.968;5.816;2023-03-01T19:34:38;12.10;;;6.43;;
68993;SDS011;56054;50.968;5.816;2023-03-01T19:38:14;13.40;;;6.63;;
68993;SDS011;56054;50.968;5.816;2023-03-01T19:41:34;17.47;;;7.03;;
68993;SDS011;56054;50.968;5.816;2023-03-01T19:44:45;14.03;;;6.27;;
68993;SDS011;56054;50.968;5.816;2023-03-01T19:47:52;15.77;;;7.03;;
68993;SDS011;56054;50.968;5.816;2023-03-01T19:51:08;20.40;;;8.07;;
68993;SDS011;56054;50.968;5.816;2023-03-01T19:54:24;13.03;;;7.23;;
68993;SDS011;56054;50.968;5.816;2023-03-01T19:57:50;13.77;;;7.43;;
68993;SDS011;56054;50.968;5.816;2023-03-01T20:00:57;19.77;;;7.43;;
68993;SDS011;56054;50.968;5.816;2023-03-01T20:04:08;14.00;;;7.80;;
68993;SDS011;56054;50.968;5.816;2023-03-01T20:07:19;17.60;;;8.80;;
68993;SDS011;56054;50.968;5.816;2023-03-01T20:11:00;18.93;;;9.17;;
68993;SDS011;56054;50.968;5.816;2023-03-01T20:14:11;19.37;;;9.83;;
68993;SDS011;56054;50.968;5.816;2023-03-01T20:17:44;18.47;;;9.40;;
68993;SDS011;56054;50.968;5.816;2023-03-01T20:20:51;16.60;;;7.47;;
68993;SDS011;56054;50.968;5.816;2023-03-01T20:24:24;24.63;;;12.63;;
68993;SDS011;56054;50.968;5.816;2023-03-01T20:27:41;19.97;;;10.20;;
68993;SDS011;56054;50.968;5.816;2023-03-01T20:30:49;31.17;;;14.63;;
68993;SDS011;56054;50.968;5.816;2023-03-01T20:34:04;19.57;;;9.67;;
68993;SDS011;56054;50.968;5.816;2023-03-01T20:37:14;36.63;;;16.03;;
68993;SDS011;56054;50.968;5.816;2023-03-01T20:40:21;30.57;;;16.03;;
68993;SDS011;56054;50.968;5.816;2023-03-01T20:43:28;22.00;;;11.40;;
68993;SDS011;56054;50.968;5.816;2023-03-01T20:47:01;23.73;;;10.90;;
68993;SDS011;56054;50.968;5.816;2023-03-01T20:50:28;17.03;;;8.90;;
68993;SDS011;56054;50.968;5.816;2023-03-01T20:54:04;23.67;;;10.27;;
68993;SDS011;56054;50.968;5.816;2023-03-01T20:57:13;36.70;;;16.70;;
68993;SDS011;56054;50.968;5.816;2023-03-01T21:00:20;56.20;;;22.33;;
68993;SDS011;56054;50.968;5.816;2023-03-01T21:03:27;54.03;;;23.63;;
68993;SDS011;56054;50.968;5.816;2023-03-01T21:06:39;51.47;;;21.43;;
68993;SDS011;56054;50.968;5.816;2023-03-01T21:09:55;123.43;;;49.43;;
68993;SDS011;56054;50.968;5.816;2023-03-01T21:13:03;113.50;;;43.07;;
68993;SDS011;56054;50.968;5.816;2023-03-01T21:16:20;79.77;;;28.97;;
68993;SDS011;56054;50.968;5.816;2023-03-01T21:19:27;163.23;;;53.80;;
68993;SDS011;56054;50.968;5.816;2023-03-01T21:23:00;139.43;;;48.23;;
68993;SDS011;56054;50.968;5.816;2023-03-01T21:26:18;72.10;;;25.77;;
68993;SDS011;56054;50.968;5.816;2023-03-01T21:29:27;92.13;;;30.33;;
68993;SDS011;56054;50.968;5.816;2023-03-01T21:32:34;167.73;;;53.27;;
68993;SDS011;56054;50.968;5.816;2023-03-01T21:35:41;131.97;;;42.67;;
68993;SDS011;56054;50.968;5.816;2023-03-01T21:38:58;148.80;;;38.83;;
68993;SDS011;56054;50.968;5.816;2023-03-01T21:42:06;109.27;;;30.07;;
68993;SDS011;56054;50.968;5.816;2023-03-01T21:45:14;127.07;;;36.73;;
68993;SDS011;56054;50.968;5.816;2023-03-01T21:48:21;77.17;;;25.23;;
68993;SDS011;56054;50.968;5.816;2023-03-01T21:51:29;128.63;;;37.23;;
68993;SDS011;56054;50.968;5.816;2023-03-01T21:54:37;110.40;;;28.87;;
68993;SDS011;56054;50.968;5.816;2023-03-01T21:57:44;64.27;;;20.77;;
68993;SDS011;56054;50.968;5.816;2023-03-01T22:01:07;239.27;;;79.43;;
68993;SDS011;56054;50.968;5.816;2023-03-01T22:04:34;152.30;;;61.20;;
68993;SDS011;56054;50.968;5.816;2023-03-01T22:07:52;83.57;;;39.33;;
68993;SDS011;56054;50.968;5.816;2023-03-01T22:11:00;17.70;;;9.63;;
68993;SDS011;56054;50.968;5.816;2023-03-01T22:14:20;16.13;;;8.43;;
68993;SDS011;56054;50.968;5.816;2023-03-01T22:17:29;20.13;;;8.90;;
68993;SDS011;56054;50.968;5.816;2023-03-01T22:25:24;15.40;;;6.43;;
68993;SDS011;56054;50.968;5.816;2023-03-01T22:28:34;16.97;;;7.63;;
68993;SDS011;56054;50.968;5.816;2023-03-01T22:31:41;16.10;;;9.83;;
68993;SDS011;56054;50.968;5.816;2023-03-01T22:35:15;17.60;;;7.40;;
68993;SDS011;56054;50.968;5.816;2023-03-01T22:42:15;17.10;;;8.73;;
68993;SDS011;56054;50.968;5.816;2023-03-01T22:45:35;14.13;;;7.50;;